馬祖南竿航空站 - ATIS

METAR RCFG 311000Z VRB07KT 3300 BR SCT004 BKN006 BKN025 25/25 Q1010 NOSIG RMK 03005KT/R21 MAX WND 08KT/R03 03007KT/NJL A2984(W)=

站台狀態:Offline
最後更新:2020-05-31 18:00:02